sensor_id;sensor_type;location;lat;lon;timestamp;temperature;humidity
19168;DHT22;9716;53.114;18.040;2023-06-10T00:00:52;20.60;92.30
19168;DHT22;9716;53.114;18.040;2023-06-10T00:03:40;20.60;92.40
19168;DHT22;9716;53.114;18.040;2023-06-10T00:06:10;20.60;92.50
19168;DHT22;9716;53.114;18.040;2023-06-10T00:08:39;20.60;92.50
19168;DHT22;9716;53.114;18.040;2023-06-10T00:11:08;20.60;92.50
19168;DHT22;9716;53.114;18.040;2023-06-10T00:13:37;20.50;92.50
19168;DHT22;9716;53.114;18.040;2023-06-10T00:16:07;20.50;92.50
19168;DHT22;9716;53.114;18.040;2023-06-10T00:18:35;20.50;92.60
19168;DHT22;9716;53.114;18.040;2023-06-10T00:21:05;20.50;92.60
19168;DHT22;9716;53.114;18.040;2023-06-10T00:23:34;20.40;92.60
19168;DHT22;9716;53.114;18.040;2023-06-10T00:26:05;20.50;92.70
19168;DHT22;9716;53.114;18.040;2023-06-10T00:28:33;20.40;92.70
19168;DHT22;9716;53.114;18.040;2023-06-10T00:31:02;20.40;92.70
19168;DHT22;9716;53.114;18.040;2023-06-10T00:33:32;20.40;92.70
19168;DHT22;9716;53.114;18.040;2023-06-10T00:36:01;20.40;92.70
19168;DHT22;9716;53.114;18.040;2023-06-10T00:38:30;20.40;92.70
19168;DHT22;9716;53.114;18.040;2023-06-10T00:40:58;20.50;92.80
19168;DHT22;9716;53.114;18.040;2023-06-10T00:43:27;20.40;92.80
19168;DHT22;9716;53.114;18.040;2023-06-10T00:45:56;20.40;92.80
19168;DHT22;9716;53.114;18.040;2023-06-10T00:48:25;20.40;92.90
19168;DHT22;9716;53.114;18.040;2023-06-10T00:50:54;20.40;93.00
19168;DHT22;9716;53.114;18.040;2023-06-10T00:53:23;20.40;93.00
19168;DHT22;9716;53.114;18.040;2023-06-10T00:55:53;20.40;93.00
19168;DHT22;9716;53.114;18.040;2023-06-10T00:58:23;20.40;93.40
19168;DHT22;9716;53.114;18.040;2023-06-10T01:00:52;20.40;93.10
19168;DHT22;9716;53.114;18.040;2023-06-10T01:03:21;20.40;93.10
19168;DHT22;9716;53.114;18.040;2023-06-10T01:05:59;20.40;93.20
19168;DHT22;9716;53.114;18.040;2023-06-10T01:08:35;20.40;93.20
19168;DHT22;9716;53.114;18.040;2023-06-10T01:11:11;20.30;93.10
19168;DHT22;9716;53.114;18.040;2023-06-10T01:13:42;20.30;93.10
19168;DHT22;9716;53.114;18.040;2023-06-10T01:16:11;20.30;93.10
19168;DHT22;9716;53.114;18.040;2023-06-10T01:18:40;20.30;93.10
19168;DHT22;9716;53.114;18.040;2023-06-10T01:21:14;20.40;93.10
19168;DHT22;9716;53.114;18.040;2023-06-10T01:23:44;20.40;93.00
19168;DHT22;9716;53.114;18.040;2023-06-10T01:26:13;20.40;93.00
19168;DHT22;9716;53.114;18.040;2023-06-10T01:28:47;20.40;92.90
19168;DHT22;9716;53.114;18.040;2023-06-10T01:31:20;20.40;92.80
19168;DHT22;9716;53.114;18.040;2023-06-10T01:33:53;20.30;92.70
19168;DHT22;9716;53.114;18.040;2023-06-10T01:36:24;20.30;92.60
19168;DHT22;9716;53.114;18.040;2023-06-10T01:38:53;20.30;92.60
19168;DHT22;9716;53.114;18.040;2023-06-10T01:41:23;20.30;92.60
19168;DHT22;9716;53.114;18.040;2023-06-10T01:43:52;20.30;92.60
19168;DHT22;9716;53.114;18.040;2023-06-10T01:46:23;20.30;92.60
19168;DHT22;9716;53.114;18.040;2023-06-10T01:48:52;20.20;92.60
19168;DHT22;9716;53.114;18.040;2023-06-10T01:51:20;20.20;93.00
19168;DHT22;9716;53.114;18.040;2023-06-10T01:53:50;20.20;92.60
19168;DHT22;9716;53.114;18.040;2023-06-10T01:56:18;20.10;92.70
19168;DHT22;9716;53.114;18.040;2023-06-10T01:58:47;20.10;92.70
19168;DHT22;9716;53.114;18.040;2023-06-10T02:01:16;20.10;92.80
19168;DHT22;9716;53.114;18.040;2023-06-10T02:03:45;20.10;92.80
19168;DHT22;9716;53.114;18.040;2023-06-10T02:06:14;20.00;92.90
19168;DHT22;9716;53.114;18.040;2023-06-10T02:08:42;20.00;93.00
19168;DHT22;9716;53.114;18.040;2023-06-10T02:11:12;20.00;93.00
19168;DHT22;9716;53.114;18.040;2023-06-10T02:13:41;20.00;93.00
19168;DHT22;9716;53.114;18.040;2023-06-10T02:16:10;19.90;93.00
19168;DHT22;9716;53.114;18.040;2023-06-10T02:18:41;19.90;93.00
19168;DHT22;9716;53.114;18.040;2023-06-10T02:21:11;19.90;93.00
19168;DHT22;9716;53.114;18.040;2023-06-10T02:23:40;19.90;93.00
19168;DHT22;9716;53.114;18.040;2023-06-10T02:26:08;19.90;93.00
19168;DHT22;9716;53.114;18.040;2023-06-10T02:28:42;19.90;93.00
19168;DHT22;9716;53.114;18.040;2023-06-10T02:31:11;19.90;93.00
19168;DHT22;9716;53.114;18.040;2023-06-10T02:33:40;19.90;92.90
19168;DHT22;9716;53.114;18.040;2023-06-10T02:36:09;19.90;92.90
19168;DHT22;9716;53.114;18.040;2023-06-10T02:38:40;19.90;93.00
19168;DHT22;9716;53.114;18.040;2023-06-10T02:41:09;19.80;93.00
19168;DHT22;9716;53.114;18.040;2023-06-10T02:43:39;19.80;93.00
19168;DHT22;9716;53.114;18.040;2023-06-10T02:46:07;19.80;93.00
19168;DHT22;9716;53.114;18.040;2023-06-10T02:48:41;19.80;93.00
19168;DHT22;9716;53.114;18.040;2023-06-10T02:51:10;19.80;93.10
19168;DHT22;9716;53.114;18.040;2023-06-10T02:53:39;19.80;93.10
19168;DHT22;9716;53.114;18.040;2023-06-10T02:56:09;19.80;93.10
19168;DHT22;9716;53.114;18.040;2023-06-10T02:58:40;19.80;93.10
19168;DHT22;9716;53.114;18.040;2023-06-10T03:01:09;19.70;93.10
19168;DHT22;9716;53.114;18.040;2023-06-10T03:03:38;19.70;93.10
19168;DHT22;9716;53.114;18.040;2023-06-10T03:06:10;19.70;93.10
19168;DHT22;9716;53.114;18.040;2023-06-10T03:08:39;19.70;93.20
19168;DHT22;9716;53.114;18.040;2023-06-10T03:11:08;19.70;93.20
19168;DHT22;9716;53.114;18.040;2023-06-10T03:13:39;19.70;93.20
19168;DHT22;9716;53.114;18.040;2023-06-10T03:16:08;19.70;93.20
19168;DHT22;9716;53.114;18.040;2023-06-10T03:18:36;19.60;93.20
19168;DHT22;9716;53.114;18.040;2023-06-10T03:21:05;19.70;93.20
19168;DHT22;9716;53.114;18.040;2023-06-10T03:23:33;19.60;93.20
19168;DHT22;9716;53.114;18.040;2023-06-10T03:26:02;19.60;93.30
19168;DHT22;9716;53.114;18.040;2023-06-10T03:28:32;19.60;93.30
19168;DHT22;9716;53.114;18.040;2023-06-10T03:31:01;19.50;93.30
19168;DHT22;9716;53.114;18.040;2023-06-10T03:33:30;19.50;93.40
19168;DHT22;9716;53.114;18.040;2023-06-10T03:35:59;19.50;93.40
19168;DHT22;9716;53.114;18.040;2023-06-10T03:38:28;19.50;93.40
19168;DHT22;9716;53.114;18.040;2023-06-10T03:40:56;19.50;93.50
19168;DHT22;9716;53.114;18.040;2023-06-10T03:43:25;19.50;93.50
19168;DHT22;9716;53.114;18.040;2023-06-10T03:45:54;19.60;93.40
19168;DHT22;9716;53.114;18.040;2023-06-10T03:48:24;19.60;93.40
19168;DHT22;9716;53.114;18.040;2023-06-10T03:50:53;19.70;93.30
19168;DHT22;9716;53.114;18.040;2023-06-10T03:53:22;19.80;93.20
19168;DHT22;9716;53.114;18.040;2023-06-10T03:55:51;19.80;93.10
19168;DHT22;9716;53.114;18.040;2023-06-10T03:58:20;19.80;92.90
19168;DHT22;9716;53.114;18.040;2023-06-10T04:00:48;19.90;92.90
19168;DHT22;9716;53.114;18.040;2023-06-10T04:03:17;19.90;92.70
19168;DHT22;9716;53.114;18.040;2023-06-10T04:05:50;19.90;92.50
19168;DHT22;9716;53.114;18.040;2023-06-10T04:08:19;19.90;92.30
19168;DHT22;9716;53.114;18.040;2023-06-10T04:10:49;20.00;92.20
19168;DHT22;9716;53.114;18.040;2023-06-10T04:13:18;20.00;92.00
19168;DHT22;9716;53.114;18.040;2023-06-10T04:15:46;20.10;91.70
19168;DHT22;9716;53.114;18.040;2023-06-10T04:18:15;20.20;91.40
19168;DHT22;9716;53.114;18.040;2023-06-10T04:20:43;20.20;91.20
19168;DHT22;9716;53.114;18.040;2023-06-10T04:23:15;20.30;91.30
19168;DHT22;9716;53.114;18.040;2023-06-10T04:25:43;20.30;90.70
19168;DHT22;9716;53.114;18.040;2023-06-10T04:28:12;20.40;90.40
19168;DHT22;9716;53.114;18.040;2023-06-10T04:30:40;20.50;90.10
19168;DHT22;9716;53.114;18.040;2023-06-10T04:33:10;20.50;89.60
19168;DHT22;9716;53.114;18.040;2023-06-10T04:35:38;20.50;89.00
19168;DHT22;9716;53.114;18.040;2023-06-10T04:38:07;20.60;88.60
19168;DHT22;9716;53.114;18.040;2023-06-10T04:40:37;20.60;89.00
19168;DHT22;9716;53.114;18.040;2023-06-10T04:43:06;20.60;87.60
19168;DHT22;9716;53.114;18.040;2023-06-10T04:45:34;20.60;87.20
19168;DHT22;9716;53.114;18.040;2023-06-10T04:48:03;20.70;87.00
19168;DHT22;9716;53.114;18.040;2023-06-10T04:50:32;20.70;86.50
19168;DHT22;9716;53.114;18.040;2023-06-10T04:53:01;20.70;86.00
19168;DHT22;9716;53.114;18.040;2023-06-10T04:55:29;20.70;85.80
19168;DHT22;9716;53.114;18.040;2023-06-10T04:57:59;20.70;85.40
19168;DHT22;9716;53.114;18.040;2023-06-10T05:00:28;20.80;85.30
19168;DHT22;9716;53.114;18.040;2023-06-10T05:02:56;20.80;84.80
19168;DHT22;9716;53.114;18.040;2023-06-10T05:05:25;20.90;84.40
19168;DHT22;9716;53.114;18.040;2023-06-10T05:07:54;21.00;84.10
19168;DHT22;9716;53.114;18.040;2023-06-10T05:10:24;21.00;83.60
19168;DHT22;9716;53.114;18.040;2023-06-10T05:12:53;21.00;83.10
19168;DHT22;9716;53.114;18.040;2023-06-10T05:15:23;21.00;82.80
19168;DHT22;9716;53.114;18.040;2023-06-10T05:17:52;21.00;82.40
19168;DHT22;9716;53.114;18.040;2023-06-10T05:20:21;21.00;82.30
19168;DHT22;9716;53.114;18.040;2023-06-10T05:22:49;21.00;82.10
19168;DHT22;9716;53.114;18.040;2023-06-10T05:25:17;21.00;81.90
19168;DHT22;9716;53.114;18.040;2023-06-10T05:27:46;21.10;81.80
19168;DHT22;9716;53.114;18.040;2023-06-10T05:30:15;21.00;81.40
19168;DHT22;9716;53.114;18.040;2023-06-10T05:32:45;21.00;81.50
19168;DHT22;9716;53.114;18.040;2023-06-10T05:35:14;21.00;81.30
19168;DHT22;9716;53.114;18.040;2023-06-10T05:37:43;20.90;81.20
19168;DHT22;9716;53.114;18.040;2023-06-10T05:40:12;20.90;81.20
19168;DHT22;9716;53.114;18.040;2023-06-10T05:42:40;20.90;81.10
19168;DHT22;9716;53.114;18.040;2023-06-10T05:45:10;20.80;81.10
19168;DHT22;9716;53.114;18.040;2023-06-10T05:47:38;20.80;81.20
19168;DHT22;9716;53.114;18.040;2023-06-10T05:50:09;20.80;81.30
19168;DHT22;9716;53.114;18.040;2023-06-10T05:52:38;20.80;81.30
19168;DHT22;9716;53.114;18.040;2023-06-10T05:55:08;20.80;81.10
19168;DHT22;9716;53.114;18.040;2023-06-10T05:57:37;20.90;81.10
19168;DHT22;9716;53.114;18.040;2023-06-10T06:00:07;20.90;80.90
19168;DHT22;9716;53.114;18.040;2023-06-10T06:02:36;21.00;80.60
19168;DHT22;9716;53.114;18.040;2023-06-10T06:05:06;21.00;81.20
19168;DHT22;9716;53.114;18.040;2023-06-10T06:07:37;21.00;80.20
19168;DHT22;9716;53.114;18.040;2023-06-10T06:10:06;21.00;80.20
19168;DHT22;9716;53.114;18.040;2023-06-10T06:12:35;21.00;80.00
19168;DHT22;9716;53.114;18.040;2023-06-10T06:15:04;21.00;79.90
19168;DHT22;9716;53.114;18.040;2023-06-10T06:17:33;21.00;79.90
19168;DHT22;9716;53.114;18.040;2023-06-10T06:20:01;21.10;79.90
19168;DHT22;9716;53.114;18.040;2023-06-10T06:22:30;21.10;79.70
19168;DHT22;9716;53.114;18.040;2023-06-10T06:25:00;21.20;79.60
19168;DHT22;9716;53.114;18.040;2023-06-10T06:27:30;21.30;79.50
19168;DHT22;9716;53.114;18.040;2023-06-10T06:29:59;21.40;79.40
19168;DHT22;9716;53.114;18.040;2023-06-10T06:32:28;21.50;79.10
19168;DHT22;9716;53.114;18.040;2023-06-10T06:34:57;21.70;79.00
19168;DHT22;9716;53.114;18.040;2023-06-10T06:37:26;21.90;78.60
19168;DHT22;9716;53.114;18.040;2023-06-10T06:39:55;22.10;78.10
19168;DHT22;9716;53.114;18.040;2023-06-10T06:42:25;22.30;78.00
19168;DHT22;9716;53.114;18.040;2023-06-10T06:44:53;22.50;77.20
19168;DHT22;9716;53.114;18.040;2023-06-10T06:47:22;22.80;77.00
19168;DHT22;9716;53.114;18.040;2023-06-10T06:49:52;23.20;76.40
19168;DHT22;9716;53.114;18.040;2023-06-10T06:52:20;23.70;75.40
19168;DHT22;9716;53.114;18.040;2023-06-10T06:54:49;24.10;74.20
19168;DHT22;9716;53.114;18.040;2023-06-10T06:57:18;24.50;73.40
19168;DHT22;9716;53.114;18.040;2023-06-10T06:59:48;24.90;72.50
19168;DHT22;9716;53.114;18.040;2023-06-10T07:02:16;25.40;71.50
19168;DHT22;9716;53.114;18.040;2023-06-10T07:04:46;25.70;70.60
19168;DHT22;9716;53.114;18.040;2023-06-10T07:07:17;25.80;70.00
19168;DHT22;9716;53.114;18.040;2023-06-10T07:09:45;25.90;69.80
19168;DHT22;9716;53.114;18.040;2023-06-10T07:12:13;26.20;69.20
19168;DHT22;9716;53.114;18.040;2023-06-10T07:14:42;26.50;68.60
19168;DHT22;9716;53.114;18.040;2023-06-10T07:17:12;26.70;67.60
19168;DHT22;9716;53.114;18.040;2023-06-10T07:19:41;26.80;66.80
19168;DHT22;9716;53.114;18.040;2023-06-10T07:22:09;27.00;66.00
19168;DHT22;9716;53.114;18.040;2023-06-10T07:24:38;27.20;65.40
19168;DHT22;9716;53.114;18.040;2023-06-10T07:27:07;27.30;64.80
19168;DHT22;9716;53.114;18.040;2023-06-10T07:29:35;27.50;64.40
19168;DHT22;9716;53.114;18.040;2023-06-10T07:32:04;27.70;64.00
19168;DHT22;9716;53.114;18.040;2023-06-10T07:34:34;27.80;63.60
19168;DHT22;9716;53.114;18.040;2023-06-10T07:37:03;28.00;63.10
19168;DHT22;9716;53.114;18.040;2023-06-10T07:39:32;28.20;62.70
19168;DHT22;9716;53.114;18.040;2023-06-10T07:42:00;28.40;62.50
19168;DHT22;9716;53.114;18.040;2023-06-10T07:44:29;28.60;62.10
19168;DHT22;9716;53.114;18.040;2023-06-10T07:46:57;28.90;62.00
19168;DHT22;9716;53.114;18.040;2023-06-10T07:49:26;29.20;61.50
19168;DHT22;9716;53.114;18.040;2023-06-10T07:51:56;29.50;61.00
19168;DHT22;9716;53.114;18.040;2023-06-10T07:54:25;29.90;60.40
19168;DHT22;9716;53.114;18.040;2023-06-10T07:56:56;30.30;59.70
19168;DHT22;9716;53.114;18.040;2023-06-10T07:59:25;30.60;58.90
19168;DHT22;9716;53.114;18.040;2023-06-10T08:01:54;30.70;58.40
19168;DHT22;9716;53.114;18.040;2023-06-10T08:04:22;30.80;58.00
19168;DHT22;9716;53.114;18.040;2023-06-10T08:06:51;30.70;57.80
19168;DHT22;9716;53.114;18.040;2023-06-10T08:09:21;30.60;57.80
19168;DHT22;9716;53.114;18.040;2023-06-10T08:11:50;30.50;57.70
19168;DHT22;9716;53.114;18.040;2023-06-10T08:14:19;30.50;57.40
19168;DHT22;9716;53.114;18.040;2023-06-10T08:16:48;30.50;57.20
19168;DHT22;9716;53.114;18.040;2023-06-10T08:19:16;30.50;57.20
19168;DHT22;9716;53.114;18.040;2023-06-10T08:21:45;30.50;56.50
19168;DHT22;9716;53.114;18.040;2023-06-10T08:24:14;30.60;56.30
19168;DHT22;9716;53.114;18.040;2023-06-10T08:26:47;30.70;56.30
19168;DHT22;9716;53.114;18.040;2023-06-10T08:29:16;30.90;55.90
19168;DHT22;9716;53.114;18.040;2023-06-10T08:31:44;30.90;55.40
19168;DHT22;9716;53.114;18.040;2023-06-10T08:34:13;30.90;55.00
19168;DHT22;9716;53.114;18.040;2023-06-10T08:36:43;30.80;55.20
19168;DHT22;9716;53.114;18.040;2023-06-10T08:39:15;30.80;55.30
19168;DHT22;9716;53.114;18.040;2023-06-10T08:41:43;30.70;55.20
19168;DHT22;9716;53.114;18.040;2023-06-10T08:44:20;30.60;55.30
19168;DHT22;9716;53.114;18.040;2023-06-10T08:46:51;30.40;55.50
19168;DHT22;9716;53.114;18.040;2023-06-10T08:49:23;30.40;55.70
19168;DHT22;9716;53.114;18.040;2023-06-10T08:51:58;30.40;55.80
19168;DHT22;9716;53.114;18.040;2023-06-10T08:54:32;30.40;55.40
19168;DHT22;9716;53.114;18.040;2023-06-10T08:57:04;30.40;55.50
19168;DHT22;9716;53.114;18.040;2023-06-10T08:59:36;30.30;55.40
19168;DHT22;9716;53.114;18.040;2023-06-10T09:02:07;30.20;55.70
19168;DHT22;9716;53.114;18.040;2023-06-10T09:04:37;30.00;55.90
19168;DHT22;9716;53.114;18.040;2023-06-10T09:07:06;29.90;56.40
19168;DHT22;9716;53.114;18.040;2023-06-10T09:09:35;29.80;56.20
19168;DHT22;9716;53.114;18.040;2023-06-10T09:12:05;29.70;56.20
19168;DHT22;9716;53.114;18.040;2023-06-10T09:14:33;29.60;56.30
19168;DHT22;9716;53.114;18.040;2023-06-10T09:17:05;29.60;56.50
19168;DHT22;9716;53.114;18.040;2023-06-10T09:19:35;29.40;56.30
19168;DHT22;9716;53.114;18.040;2023-06-10T09:22:05;29.20;56.70
19168;DHT22;9716;53.114;18.040;2023-06-10T09:24:34;29.00;57.20
19168;DHT22;9716;53.114;18.040;2023-06-10T09:27:03;28.90;57.40
19168;DHT22;9716;53.114;18.040;2023-06-10T09:29:45;28.70;57.50
19168;DHT22;9716;53.114;18.040;2023-06-10T09:32:17;28.60;58.00
19168;DHT22;9716;53.114;18.040;2023-06-10T09:34:47;28.40;58.40
19168;DHT22;9716;53.114;18.040;2023-06-10T09:37:20;28.10;58.90
19168;DHT22;9716;53.114;18.040;2023-06-10T09:40:03;28.00;59.30
19168;DHT22;9716;53.114;18.040;2023-06-10T09:42:33;27.80;59.20
19168;DHT22;9716;53.114;18.040;2023-06-10T09:45:03;27.60;59.40
19168;DHT22;9716;53.114;18.040;2023-06-10T09:47:34;27.40;59.90
19168;DHT22;9716;53.114;18.040;2023-06-10T09:50:03;27.40;60.30
19168;DHT22;9716;53.114;18.040;2023-06-10T09:52:37;27.40;59.40
19168;DHT22;9716;53.114;18.040;2023-06-10T09:55:08;27.30;59.60
19168;DHT22;9716;53.114;18.040;2023-06-10T09:57:38;27.20;59.10
19168;DHT22;9716;53.114;18.040;2023-06-10T10:00:10;27.10;58.90
19168;DHT22;9716;53.114;18.040;2023-06-10T10:02:47;27.00;59.00
19168;DHT22;9716;53.114;18.040;2023-06-10T10:05:18;26.90;59.00
19168;DHT22;9716;53.114;18.040;2023-06-10T10:07:48;26.80;58.80
19168;DHT22;9716;53.114;18.040;2023-06-10T10:10:18;26.80;59.50
19168;DHT22;9716;53.114;18.040;2023-06-10T10:12:47;26.80;59.80
19168;DHT22;9716;53.114;18.040;2023-06-10T10:15:17;26.70;59.60
19168;DHT22;9716;53.114;18.040;2023-06-10T10:17:52;26.60;59.20
19168;DHT22;9716;53.114;18.040;2023-06-10T10:20:27;26.70;59.60
19168;DHT22;9716;53.114;18.040;2023-06-10T10:22:57;26.90;60.60
19168;DHT22;9716;53.114;18.040;2023-06-10T10:25:32;27.20;61.00
19168;DHT22;9716;53.114;18.040;2023-06-10T10:28:08;27.50;59.30
19168;DHT22;9716;53.114;18.040;2023-06-10T10:30:40;27.50;59.20
19168;DHT22;9716;53.114;18.040;2023-06-10T10:33:15;27.70;59.10
19168;DHT22;9716;53.114;18.040;2023-06-10T10:35:46;27.80;58.30
19168;DHT22;9716;53.114;18.040;2023-06-10T10:38:15;27.90;58.50
19168;DHT22;9716;53.114;18.040;2023-06-10T10:40:45;28.00;59.10
19168;DHT22;9716;53.114;18.040;2023-06-10T10:43:16;28.10;58.90
19168;DHT22;9716;53.114;18.040;2023-06-10T10:45:46;28.10;58.40
19168;DHT22;9716;53.114;18.040;2023-06-10T10:48:16;28.30;58.70
19168;DHT22;9716;53.114;18.040;2023-06-10T10:50:56;28.40;58.10
19168;DHT22;9716;53.114;18.040;2023-06-10T10:53:25;28.40;57.20
19168;DHT22;9716;53.114;18.040;2023-06-10T10:56:05;28.30;57.00
19168;DHT22;9716;53.114;18.040;2023-06-10T10:58:34;28.20;55.90
19168;DHT22;9716;53.114;18.040;2023-06-10T11:01:11;28.00;55.90
19168;DHT22;9716;53.114;18.040;2023-06-10T11:03:45;27.80;56.60
19168;DHT22;9716;53.114;18.040;2023-06-10T11:06:16;27.60;56.60
19168;DHT22;9716;53.114;18.040;2023-06-10T11:08:49;27.50;56.80
19168;DHT22;9716;53.114;18.040;2023-06-10T11:11:19;27.30;57.00
19168;DHT22;9716;53.114;18.040;2023-06-10T11:13:59;27.20;57.50
19168;DHT22;9716;53.114;18.040;2023-06-10T11:16:39;27.20;58.10
19168;DHT22;9716;53.114;18.040;2023-06-10T11:19:10;27.30;57.60
19168;DHT22;9716;53.114;18.040;2023-06-10T11:21:59;27.40;57.40
19168;DHT22;9716;53.114;18.040;2023-06-10T11:24:28;27.40;57.20
19168;DHT22;9716;53.114;18.040;2023-06-10T11:27:15;27.40;57.20
19168;DHT22;9716;53.114;18.040;2023-06-10T11:29:58;27.40;57.00
19168;DHT22;9716;53.114;18.040;2023-06-10T11:32:45;27.40;57.40
19168;DHT22;9716;53.114;18.040;2023-06-10T11:35:23;27.40;56.20
19168;DHT22;9716;53.114;18.040;2023-06-10T11:37:52;27.40;55.40
19168;DHT22;9716;53.114;18.040;2023-06-10T11:40:21;27.40;54.40
19168;DHT22;9716;53.114;18.040;2023-06-10T11:42:50;27.30;54.50
19168;DHT22;9716;53.114;18.040;2023-06-10T11:45:22;27.20;54.20
19168;DHT22;9716;53.114;18.040;2023-06-10T11:47:57;27.20;54.30
19168;DHT22;9716;53.114;18.040;2023-06-10T11:50:30;27.20;53.50
19168;DHT22;9716;53.114;18.040;2023-06-10T11:52:59;27.20;51.90
19168;DHT22;9716;53.114;18.040;2023-06-10T11:55:41;27.10;51.00
19168;DHT22;9716;53.114;18.040;2023-06-10T11:58:13;27.00;51.10
19168;DHT22;9716;53.114;18.040;2023-06-10T12:00:46;26.80;51.10
19168;DHT22;9716;53.114;18.040;2023-06-10T12:03:15;26.70;51.30
19168;DHT22;9716;53.114;18.040;2023-06-10T12:05:59;26.60;51.20
19168;DHT22;9716;53.114;18.040;2023-06-10T12:08:28;26.50;51.00
19168;DHT22;9716;53.114;18.040;2023-06-10T12:10:57;26.40;51.00
19168;DHT22;9716;53.114;18.040;2023-06-10T12:13:27;26.30;51.20
19168;DHT22;9716;53.114;18.040;2023-06-10T12:16:06;26.20;51.50
19168;DHT22;9716;53.114;18.040;2023-06-10T12:18:35;26.10;51.60
19168;DHT22;9716;53.114;18.040;2023-06-10T12:21:18;26.00;51.80
19168;DHT22;9716;53.114;18.040;2023-06-10T12:24:00;25.90;51.90
19168;DHT22;9716;53.114;18.040;2023-06-10T12:26:43;25.90;51.70
19168;DHT22;9716;53.114;18.040;2023-06-10T12:29:19;25.80;52.10
19168;DHT22;9716;53.114;18.040;2023-06-10T12:31:54;25.80;50.50
19168;DHT22;9716;53.114;18.040;2023-06-10T12:34:35;25.70;50.10
19168;DHT22;9716;53.114;18.040;2023-06-10T12:37:10;25.70;50.00
19168;DHT22;9716;53.114;18.040;2023-06-10T12:39:41;25.70;49.90
19168;DHT22;9716;53.114;18.040;2023-06-10T12:42:10;25.60;50.00
19168;DHT22;9716;53.114;18.040;2023-06-10T12:44:40;25.60;50.00
19168;DHT22;9716;53.114;18.040;2023-06-10T12:47:10;25.60;50.00
19168;DHT22;9716;53.114;18.040;2023-06-10T12:49:39;25.60;49.70
19168;DHT22;9716;53.114;18.040;2023-06-10T12:52:09;25.60;49.20
19168;DHT22;9716;53.114;18.040;2023-06-10T12:54:38;25.60;48.70
19168;DHT22;9716;53.114;18.040;2023-06-10T12:57:07;25.50;48.70
19168;DHT22;9716;53.114;18.040;2023-06-10T12:59:37;25.60;48.50
19168;DHT22;9716;53.114;18.040;2023-06-10T13:02:05;25.60;47.80
19168;DHT22;9716;53.114;18.040;2023-06-10T13:04:34;25.60;47.60
19168;DHT22;9716;53.114;18.040;2023-06-10T13:07:03;25.50;46.90
19168;DHT22;9716;53.114;18.040;2023-06-10T13:09:33;25.50;47.10
19168;DHT22;9716;53.114;18.040;2023-06-10T13:12:02;25.50;46.40
19168;DHT22;9716;53.114;18.040;2023-06-10T13:14:32;25.50;46.70
19168;DHT22;9716;53.114;18.040;2023-06-10T13:17:01;25.50;47.00
19168;DHT22;9716;53.114;18.040;2023-06-10T13:19:30;25.40;47.30
19168;DHT22;9716;53.114;18.040;2023-06-10T13:21:59;25.40;47.40
19168;DHT22;9716;53.114;18.040;2023-06-10T13:24:28;25.40;48.10
19168;DHT22;9716;53.114;18.040;2023-06-10T13:26:58;25.30;48.70
19168;DHT22;9716;53.114;18.040;2023-06-10T13:29:26;25.30;48.80
19168;DHT22;9716;53.114;18.040;2023-06-10T13:31:55;25.30;49.10
19168;DHT22;9716;53.114;18.040;2023-06-10T13:34:23;25.30;49.50
19168;DHT22;9716;53.114;18.040;2023-06-10T13:36:52;25.30;49.90
19168;DHT22;9716;53.114;18.040;2023-06-10T13:39:21;25.30;50.10
19168;DHT22;9716;53.114;18.040;2023-06-10T13:41:50;25.30;50.60
19168;DHT22;9716;53.114;18.040;2023-06-10T13:44:20;25.20;51.40
19168;DHT22;9716;53.114;18.040;2023-06-10T13:46:49;25.20;50.70
19168;DHT22;9716;53.114;18.040;2023-06-10T13:49:18;25.20;50.60
19168;DHT22;9716;53.114;18.040;2023-06-10T13:51:47;25.20;50.60
19168;DHT22;9716;53.114;18.040;2023-06-10T13:54:15;25.20;50.80
19168;DHT22;9716;53.114;18.040;2023-06-10T13:56:44;25.20;51.10
19168;DHT22;9716;53.114;18.040;2023-06-10T13:59:13;25.20;51.30
19168;DHT22;9716;53.114;18.040;2023-06-10T14:01:43;25.20;51.30
19168;DHT22;9716;53.114;18.040;2023-06-10T14:04:12;25.20;50.80
19168;DHT22;9716;53.114;18.040;2023-06-10T14:06:41;25.20;50.40
19168;DHT22;9716;53.114;18.040;2023-06-10T14:09:09;25.20;50.20
19168;DHT22;9716;53.114;18.040;2023-06-10T14:11:38;25.20;49.80
19168;DHT22;9716;53.114;18.040;2023-06-10T14:14:07;25.20;49.50
19168;DHT22;9716;53.114;18.040;2023-06-10T14:16:36;25.20;49.50
19168;DHT22;9716;53.114;18.040;2023-06-10T14:19:10;25.20;49.30
19168;DHT22;9716;53.114;18.040;2023-06-10T14:21:42;25.20;49.30
19168;DHT22;9716;53.114;18.040;2023-06-10T14:24:10;25.10;49.20
19168;DHT22;9716;53.114;18.040;2023-06-10T14:26:39;25.10;49.20
19168;DHT22;9716;53.114;18.040;2023-06-10T14:29:08;25.10;49.10
19168;DHT22;9716;53.114;18.040;2023-06-10T14:31:37;25.00;49.10
19168;DHT22;9716;53.114;18.040;2023-06-10T14:34:05;25.00;49.20
19168;DHT22;9716;53.114;18.040;2023-06-10T14:36:38;25.00;49.40
19168;DHT22;9716;53.114;18.040;2023-06-10T14:39:06;25.10;49.40
19168;DHT22;9716;53.114;18.040;2023-06-10T14:41:35;25.10;49.20
19168;DHT22;9716;53.114;18.040;2023-06-10T14:44:04;25.00;48.90
19168;DHT22;9716;53.114;18.040;2023-06-10T14:46:33;25.00;48.90
19168;DHT22;9716;53.114;18.040;2023-06-10T14:49:02;25.00;48.20
19168;DHT22;9716;53.114;18.040;2023-06-10T14:51:31;25.00;48.40
19168;DHT22;9716;53.114;18.040;2023-06-10T14:54:04;25.00;48.20
19168;DHT22;9716;53.114;18.040;2023-06-10T14:56:33;24.90;48.30
19168;DHT22;9716;53.114;18.040;2023-06-10T14:59:01;25.00;48.60
19168;DHT22;9716;53.114;18.040;2023-06-10T15:01:30;24.90;48.40
19168;DHT22;9716;53.114;18.040;2023-06-10T15:03:59;24.90;48.30
19168;DHT22;9716;53.114;18.040;2023-06-10T15:06:28;24.90;48.60
19168;DHT22;9716;53.114;18.040;2023-06-10T15:08:56;24.90;48.80
19168;DHT22;9716;53.114;18.040;2023-06-10T15:11:26;24.90;49.10
19168;DHT22;9716;53.114;18.040;2023-06-10T15:13:55;24.80;48.90
19168;DHT22;9716;53.114;18.040;2023-06-10T15:16:23;24.80;49.00
19168;DHT22;9716;53.114;18.040;2023-06-10T15:18:52;24.70;48.90
19168;DHT22;9716;53.114;18.040;2023-06-10T15:21:21;24.70;48.90
19168;DHT22;9716;53.114;18.040;2023-06-10T15:23:49;24.70;49.00
19168;DHT22;9716;53.114;18.040;2023-06-10T15:26:18;24.70;49.20
19168;DHT22;9716;53.114;18.040;2023-06-10T15:28:49;24.70;49.60
19168;DHT22;9716;53.114;18.040;2023-06-10T15:31:17;24.70;49.80
19168;DHT22;9716;53.114;18.040;2023-06-10T15:33:46;24.70;49.80
19168;DHT22;9716;53.114;18.040;2023-06-10T15:36:15;24.70;50.00
19168;DHT22;9716;53.114;18.040;2023-06-10T15:38:43;24.70;50.00
19168;DHT22;9716;53.114;18.040;2023-06-10T15:41:13;24.70;49.70
19168;DHT22;9716;53.114;18.040;2023-06-10T15:43:41;24.60;49.30
19168;DHT22;9716;53.114;18.040;2023-06-10T15:46:12;24.60;49.30
19168;DHT22;9716;53.114;18.040;2023-06-10T15:48:40;24.60;49.80